createdAt,value
2022-08-09T00:00:06.111Z,52.60
2022-08-09T00:02:49.001Z,52.10
2022-08-09T00:06:18.465Z,52.10
2022-08-09T00:08:31.536Z,52.00
2022-08-09T00:11:05.866Z,51.80
2022-08-09T00:13:46.637Z,51.90
2022-08-09T00:16:16.653Z,51.80
2022-08-09T00:18:56.630Z,51.80
2022-08-09T00:21:27.131Z,51.80
2022-08-09T00:24:00.001Z,51.70
2022-08-09T00:26:32.954Z,51.80
2022-08-09T00:29:12.381Z,51.70
2022-08-09T00:31:59.682Z,51.70
2022-08-09T00:34:32.613Z,51.70
2022-08-09T00:37:03.670Z,51.70
2022-08-09T00:40:13.730Z,51.60
2022-08-09T00:44:10.258Z,51.60
2022-08-09T00:45:18.166Z,51.60
2022-08-09T00:47:50.998Z,51.50
2022-08-09T00:50:21.047Z,51.50
2022-08-09T00:52:56.083Z,51.50
2022-08-09T00:56:03.094Z,51.40
2022-08-09T00:58:25.462Z,51.30
2022-08-09T01:00:58.988Z,51.20
2022-08-09T01:03:50.174Z,51.10
2022-08-09T01:06:53.545Z,51.00
2022-08-09T01:09:46.824Z,51.00
2022-08-09T01:12:38.859Z,50.90
2022-08-09T01:15:17.079Z,50.70
2022-08-09T01:18:06.638Z,50.80
2022-08-09T01:20:47.260Z,50.80
2022-08-09T01:24:01.842Z,50.60
2022-08-09T01:26:44.074Z,50.60
2022-08-09T01:29:16.695Z,50.50
2022-08-09T01:32:29.983Z,50.50
2022-08-09T01:34:37.803Z,51.10
2022-08-09T01:37:09.210Z,50.50
2022-08-09T01:39:39.759Z,50.50
2022-08-09T01:42:11.051Z,50.50
2022-08-09T01:44:42.563Z,50.40
2022-08-09T01:47:17.411Z,50.30
2022-08-09T01:49:48.905Z,50.40
2022-08-09T01:52:21.165Z,50.30
2022-08-09T01:54:57.605Z,50.30
2022-08-09T01:57:40.365Z,50.20
2022-08-09T02:00:35.187Z,50.20
2022-08-09T02:03:07.385Z,50.00
2022-08-09T02:06:03.517Z,50.10
2022-08-09T02:08:57.805Z,50.10
2022-08-09T02:11:42.672Z,50.00
2022-08-09T02:14:25.267Z,49.90
2022-08-09T02:17:14.650Z,49.90
2022-08-09T02:19:47.065Z,49.80
2022-08-09T02:22:46.361Z,49.90
2022-08-09T02:25:30.942Z,49.90
2022-08-09T02:28:24.115Z,49.80
2022-08-09T02:30:55.955Z,49.70
2022-08-09T02:33:37.898Z,49.60
2022-08-09T02:36:41.969Z,49.50
2022-08-09T02:39:33.712Z,49.60
2022-08-09T02:42:14.293Z,49.60
2022-08-09T02:45:00.110Z,49.50
2022-08-09T02:47:33.896Z,49.50
2022-08-09T02:50:26.885Z,49.30
2022-08-09T02:53:03.630Z,49.30
2022-08-09T02:55:57.464Z,49.30
2022-08-09T02:58:36.009Z,49.20
2022-08-09T03:01:21.563Z,49.20
2022-08-09T03:04:16.963Z,49.20
2022-08-09T03:06:43.123Z,49.70
2022-08-09T03:09:15.602Z,49.10
2022-08-09T03:12:09.984Z,49.10
2022-08-09T03:14:37.591Z,49.10
2022-08-09T03:17:08.437Z,49.10
2022-08-09T03:19:59.482Z,49.00
2022-08-09T03:22:43.684Z,49.00
2022-08-09T03:25:26.022Z,48.80
2022-08-09T03:28:11.241Z,48.80
2022-08-09T03:30:43.492Z,48.80
2022-08-09T03:33:18.686Z,48.60
2022-08-09T03:36:14.056Z,48.70
2022-08-09T03:38:44.519Z,48.70
2022-08-09T03:41:16.727Z,48.70
2022-08-09T03:44:03.624Z,48.70
2022-08-09T03:46:39.110Z,48.70
2022-08-09T03:49:09.886Z,48.60
2022-08-09T03:51:56.578Z,48.70
2022-08-09T03:54:32.710Z,48.60
2022-08-09T03:57:18.699Z,48.50
2022-08-09T03:59:54.530Z,48.40
2022-08-09T04:02:28.907Z,48.40
2022-08-09T04:05:06.260Z,48.30
2022-08-09T04:07:52.345Z,48.30
2022-08-09T04:10:28.427Z,48.30
2022-08-09T04:13:11.422Z,48.30
2022-08-09T04:16:17.421Z,48.10
2022-08-09T04:18:31.906Z,48.00
2022-08-09T04:21:10.385Z,47.90
2022-08-09T04:23:40.473Z,48.00
2022-08-09T04:26:35.136Z,47.90
2022-08-09T04:29:12.208Z,47.90
2022-08-09T04:31:47.044Z,47.90
2022-08-09T04:34:18.843Z,47.80
2022-08-09T04:36:50.267Z,47.70
2022-08-09T04:39:20.638Z,47.70
2022-08-09T04:41:53.528Z,47.60
2022-08-09T04:44:23.520Z,47.60
2022-08-09T04:46:58.331Z,47.50
2022-08-09T04:49:52.574Z,47.40
2022-08-09T04:52:27.280Z,47.30
2022-08-09T04:54:57.736Z,47.20
2022-08-09T04:57:58.785Z,47.40
2022-08-09T05:00:19.724Z,47.40
2022-08-09T05:02:51.919Z,48.00
2022-08-09T05:05:32.413Z,47.30
2022-08-09T05:08:15.110Z,47.30
2022-08-09T05:10:45.686Z,47.80
2022-08-09T05:13:16.487Z,47.20
2022-08-09T05:15:48.043Z,47.30
2022-08-09T05:18:38.987Z,47.30
2022-08-09T05:21:13.479Z,47.20
2022-08-09T05:24:01.265Z,47.20
2022-08-09T05:26:36.629Z,47.20
2022-08-09T05:29:17.231Z,47.10
2022-08-09T05:31:58.882Z,47.00
2022-08-09T05:34:31.886Z,47.00
2022-08-09T05:37:06.609Z,46.90
2022-08-09T05:39:43.239Z,46.90
2022-08-09T05:42:21.035Z,47.40
2022-08-09T05:44:55.398Z,46.80
2022-08-09T05:47:27.267Z,46.90
2022-08-09T05:50:30.563Z,46.80
2022-08-09T05:52:53.869Z,46.70
2022-08-09T05:55:25.302Z,46.70
2022-08-09T05:57:57.576Z,46.60
2022-08-09T06:00:32.913Z,46.60
2022-08-09T06:03:10.755Z,46.50
2022-08-09T06:05:57.017Z,46.40
2022-08-09T06:08:31.183Z,46.40
2022-08-09T06:11:01.341Z,46.30
2022-08-09T06:13:47.516Z,46.20
2022-08-09T06:16:17.671Z,46.10
2022-08-09T06:18:49.286Z,46.00
2022-08-09T06:21:20.378Z,46.00
2022-08-09T06:23:57.936Z,46.00
2022-08-09T06:26:31.733Z,46.00
2022-08-09T06:29:04.731Z,46.00
2022-08-09T06:31:39.842Z,45.90
2022-08-09T06:34:29.821Z,45.80
2022-08-09T06:37:00.903Z,45.80
2022-08-09T06:39:49.164Z,45.70
2022-08-09T06:42:24.970Z,45.80
2022-08-09T06:45:00.166Z,45.70
2022-08-09T06:47:41.893Z,45.80
2022-08-09T06:50:16.666Z,45.80
2022-08-09T06:52:49.269Z,46.00
2022-08-09T06:55:22.765Z,45.90
2022-08-09T06:58:02.520Z,46.10
2022-08-09T07:00:57.227Z,46.00
2022-08-09T07:03:28.997Z,46.10
2022-08-09T07:06:04.747Z,46.00
2022-08-09T07:08:37.430Z,46.00
2022-08-09T07:11:12.332Z,46.00
2022-08-09T07:13:45.347Z,45.90
2022-08-09T07:16:41.532Z,45.90
2022-08-09T07:19:23.662Z,45.90
2022-08-09T07:21:57.899Z,45.90
2022-08-09T07:24:40.742Z,45.60
2022-08-09T07:27:26.890Z,45.40
2022-08-09T07:30:04.450Z,45.30
2022-08-09T07:32:35.855Z,45.40
2022-08-09T07:35:07.978Z,45.50
2022-08-09T07:37:43.390Z,45.60
2022-08-09T07:40:20.188Z,45.40
2022-08-09T07:43:00.161Z,45.50
2022-08-09T07:45:40.393Z,45.60
2022-08-09T07:48:25.662Z,46.00
2022-08-09T07:51:09.949Z,45.40
2022-08-09T07:54:06.921Z,45.60
2022-08-09T07:56:48.806Z,45.80
2022-08-09T07:59:34.885Z,45.90
2022-08-09T08:02:19.116Z,45.90
2022-08-09T08:04:53.464Z,46.00
2022-08-09T08:08:43.258Z,46.00
2022-08-09T08:10:14.403Z,46.10
2022-08-09T08:12:49.058Z,46.20
2022-08-09T08:15:23.000Z,46.20
2022-08-09T08:17:57.958Z,46.20
2022-08-09T08:20:32.621Z,46.20
2022-08-09T08:23:16.028Z,46.20
2022-08-09T08:25:50.170Z,46.10
2022-08-09T08:28:26.107Z,46.10
2022-08-09T08:31:13.960Z,46.10
2022-08-09T08:33:52.604Z,46.10
2022-08-09T08:36:29.261Z,46.00
2022-08-09T08:39:00.782Z,45.90
2022-08-09T08:41:50.557Z,46.00
2022-08-09T08:44:26.997Z,46.00
2022-08-09T08:47:04.336Z,46.00
2022-08-09T08:49:48.068Z,46.00
2022-08-09T08:52:57.590Z,46.00
2022-08-09T08:55:10.996Z,46.00
2022-08-09T08:57:57.558Z,45.90
2022-08-09T09:00:34.348Z,46.00
2022-08-09T09:03:08.250Z,46.00
2022-08-09T09:05:59.942Z,46.00
2022-08-09T09:08:40.823Z,45.90
2022-08-09T09:11:17.421Z,46.00
2022-08-09T09:13:56.526Z,46.00
2022-08-09T09:16:34.365Z,46.00
2022-08-09T09:19:40.124Z,46.00
2022-08-09T09:22:04.297Z,46.00
2022-08-09T09:24:43.378Z,46.00
2022-08-09T09:28:05.270Z,46.10
2022-08-09T09:33:16.571Z,46.10
2022-08-09T09:36:02.242Z,46.20
2022-08-09T09:38:53.450Z,46.20
2022-08-09T09:41:33.219Z,46.20
2022-08-09T09:44:27.759Z,46.20
2022-08-09T09:47:21.302Z,46.30
2022-08-09T09:50:16.875Z,46.30
2022-08-09T09:52:57.374Z,46.30
2022-08-09T09:55:32.903Z,46.40
2022-08-09T09:58:17.074Z,46.40
2022-08-09T10:00:55.241Z,46.40
2022-08-09T10:03:57.096Z,46.40
2022-08-09T10:06:43.467Z,46.40
2022-08-09T10:09:23.300Z,46.50
2022-08-09T10:12:11.780Z,46.50
2022-08-09T10:14:43.986Z,46.50
2022-08-09T10:17:51.194Z,46.50
2022-08-09T10:20:27.531Z,46.60
2022-08-09T10:23:22.130Z,46.50
2022-08-09T10:26:06.007Z,46.60
2022-08-09T10:28:38.880Z,46.60
2022-08-09T10:34:10.035Z,46.80
2022-08-09T10:36:51.455Z,46.70
2022-08-09T10:39:21.780Z,46.80
2022-08-09T10:41:57.680Z,46.80
2022-08-09T10:44:29.181Z,46.80
2022-08-09T10:48:26.051Z,46.90
2022-08-09T10:50:32.830Z,46.90
2022-08-09T10:53:21.141Z,46.90
2022-08-09T10:55:58.418Z,46.90
2022-08-09T10:58:35.048Z,47.00
2022-08-09T11:03:06.627Z,46.90
2022-08-09T11:04:29.847Z,47.00
2022-08-09T11:07:01.449Z,47.00
2022-08-09T11:09:41.391Z,47.10
2022-08-09T11:12:26.468Z,47.10
2022-08-09T11:15:02.590Z,47.10
2022-08-09T11:17:33.077Z,47.20
2022-08-09T11:20:22.668Z,47.30
2022-08-09T11:22:57.090Z,47.30
2022-08-09T11:25:36.257Z,47.30
2022-08-09T11:28:38.503Z,47.40
2022-08-09T11:31:50.135Z,47.40
2022-08-09T11:34:29.557Z,47.50
2022-08-09T11:37:00.353Z,47.60
2022-08-09T11:39:37.935Z,47.70
2022-08-09T11:42:14.669Z,47.60
2022-08-09T11:44:49.497Z,47.70
2022-08-09T11:47:19.582Z,47.70
2022-08-09T11:50:55.136Z,47.70
2022-08-09T11:53:55.213Z,47.80
2022-08-09T11:56:02.892Z,47.80
2022-08-09T11:58:41.465Z,47.90
2022-08-09T12:01:37.653Z,47.90
2022-08-09T12:04:20.555Z,48.50
2022-08-09T12:06:56.198Z,48.00
2022-08-09T12:09:33.955Z,48.00
2022-08-09T12:12:12.852Z,48.00
2022-08-09T12:15:07.411Z,48.20
2022-08-09T12:17:42.367Z,48.20
2022-08-09T12:20:22.115Z,48.20
2022-08-09T12:23:01.156Z,48.20
2022-08-09T12:25:37.484Z,48.30
2022-08-09T12:29:10.052Z,48.30
2022-08-09T12:32:02.086Z,48.40
2022-08-09T12:34:36.678Z,48.40
2022-08-09T12:37:22.288Z,48.50
2022-08-09T12:40:10.523Z,48.50
2022-08-09T12:42:50.571Z,48.50
2022-08-09T12:45:33.671Z,48.50
2022-08-09T12:48:19.981Z,48.60
2022-08-09T12:51:00.314Z,48.60
2022-08-09T12:53:44.608Z,48.60
2022-08-09T12:56:43.727Z,48.70
2022-08-09T12:59:14.033Z,48.70
2022-08-09T13:01:48.612Z,48.70
2022-08-09T13:04:36.443Z,48.70
2022-08-09T13:07:19.933Z,48.80
2022-08-09T13:10:05.862Z,48.80
2022-08-09T13:12:59.868Z,48.90
2022-08-09T13:16:00.051Z,48.80
2022-08-09T13:18:32.102Z,48.90
2022-08-09T13:22:36.094Z,48.90
2022-08-09T13:24:44.720Z,49.50
2022-08-09T13:27:01.099Z,49.00
2022-08-09T13:30:03.141Z,49.00
2022-08-09T13:32:29.143Z,49.00
2022-08-09T13:34:59.390Z,49.00
2022-08-09T13:37:52.159Z,49.10
2022-08-09T13:41:46.068Z,49.10
2022-08-09T13:43:15.588Z,49.10
2022-08-09T13:46:42.225Z,49.00
2022-08-09T13:48:39.204Z,49.10
2022-08-09T13:51:12.497Z,49.10
2022-08-09T13:53:44.659Z,49.20
2022-08-09T13:56:15.036Z,49.10
2022-08-09T13:58:48.271Z,49.20
2022-08-09T14:02:00.451Z,49.20
2022-08-09T14:04:11.587Z,49.30
2022-08-09T14:06:42.009Z,49.20
2022-08-09T14:09:16.803Z,49.20
2022-08-09T14:11:47.738Z,49.30
2022-08-09T14:14:25.778Z,49.20
2022-08-09T14:16:58.658Z,49.20
2022-08-09T14:19:33.090Z,49.30
2022-08-09T14:22:03.774Z,49.30
2022-08-09T14:24:34.524Z,49.30
2022-08-09T14:27:19.742Z,49.30
2022-08-09T14:30:24.637Z,49.40
2022-08-09T14:32:40.922Z,49.40
2022-08-09T14:35:12.124Z,49.40
2022-08-09T14:38:02.967Z,49.50
2022-08-09T14:40:37.968Z,49.40
2022-08-09T14:43:22.585Z,49.40
2022-08-09T14:46:55.588Z,49.40
2022-08-09T14:48:42.817Z,49.50
2022-08-09T14:51:15.492Z,49.50
2022-08-09T14:53:52.311Z,49.40
2022-08-09T14:56:22.870Z,49.40
2022-08-09T14:58:57.879Z,49.40
2022-08-09T15:01:28.070Z,49.50
2022-08-09T15:03:58.133Z,49.50
2022-08-09T15:06:29.115Z,49.50
2022-08-09T15:09:00.122Z,49.60
2022-08-09T15:11:30.244Z,49.60
2022-08-09T15:14:04.772Z,49.60
2022-08-09T15:16:43.208Z,49.60
2022-08-09T15:19:16.131Z,49.60
2022-08-09T15:21:58.781Z,50.10
2022-08-09T15:24:32.568Z,50.10
2022-08-09T15:27:02.601Z,49.70
2022-08-09T15:30:55.791Z,49.60
2022-08-09T15:32:28.644Z,49.70
2022-08-09T15:35:17.857Z,49.70
2022-08-09T15:37:57.197Z,49.70
2022-08-09T15:40:43.417Z,49.70
2022-08-09T15:43:14.734Z,49.70
2022-08-09T15:45:51.877Z,49.70
2022-08-09T15:48:35.291Z,49.70
2022-08-09T15:51:11.426Z,49.80
2022-08-09T15:54:04.920Z,49.80
2022-08-09T15:56:45.513Z,49.80
2022-08-09T15:59:19.767Z,49.80
2022-08-09T16:01:50.180Z,49.80
2022-08-09T16:04:23.118Z,49.80
2022-08-09T16:06:53.306Z,49.90
2022-08-09T16:09:32.591Z,49.90
2022-08-09T16:12:15.701Z,49.90
2022-08-09T16:14:46.010Z,49.90
2022-08-09T16:17:16.920Z,49.80
2022-08-09T16:19:49.290Z,49.90
2022-08-09T16:22:34.874Z,49.90
2022-08-09T16:25:06.752Z,49.90
2022-08-09T16:27:38.039Z,49.90
2022-08-09T16:30:15.380Z,49.90
2022-08-09T16:33:10.664Z,49.90
2022-08-09T16:35:57.980Z,49.90
2022-08-09T16:38:30.997Z,50.00
2022-08-09T16:41:04.094Z,50.00
2022-08-09T16:43:34.516Z,50.00
2022-08-09T16:46:10.757Z,50.00
2022-08-09T16:48:53.083Z,50.10
2022-08-09T16:51:26.017Z,50.10
2022-08-09T16:54:25.347Z,50.00
2022-08-09T16:56:49.290Z,50.10
2022-08-09T16:59:20.372Z,50.00
2022-08-09T17:01:52.995Z,50.00
2022-08-09T17:04:28.191Z,50.10
2022-08-09T17:08:41.175Z,50.00
2022-08-09T17:09:52.326Z,50.10
2022-08-09T17:12:32.527Z,50.10
2022-08-09T17:15:30.539Z,50.10
2022-08-09T17:18:00.329Z,50.10
2022-08-09T17:20:35.235Z,50.20
2022-08-09T17:23:10.540Z,50.10
2022-08-09T17:25:46.317Z,50.20
2022-08-09T17:28:23.282Z,50.20
2022-08-09T17:30:53.702Z,50.20
2022-08-09T17:33:23.875Z,50.20
2022-08-09T17:35:54.645Z,50.20
2022-08-09T17:38:34.209Z,50.20
2022-08-09T17:41:07.193Z,50.20
2022-08-09T17:43:37.996Z,50.20
2022-08-09T17:46:09.850Z,50.20
2022-08-09T17:48:52.058Z,50.20
2022-08-09T17:51:23.347Z,50.20
2022-08-09T17:53:55.566Z,50.30
2022-08-09T17:56:35.316Z,50.20
2022-08-09T17:59:09.206Z,50.30
2022-08-09T18:02:10.863Z,50.20
2022-08-09T18:04:36.268Z,50.30
2022-08-09T18:07:07.799Z,50.30
2022-08-09T18:09:41.605Z,50.30
2022-08-09T18:12:14.865Z,50.40
2022-08-09T18:14:49.889Z,50.40
2022-08-09T18:17:27.590Z,50.40
2022-08-09T18:20:59.965Z,50.40
2022-08-09T18:23:07.696Z,50.30
2022-08-09T18:25:58.128Z,50.40
2022-08-09T18:30:40.038Z,50.30
2022-08-09T18:31:19.234Z,50.40
2022-08-09T18:34:02.352Z,50.40
2022-08-09T18:36:34.754Z,50.40
2022-08-09T18:39:07.764Z,50.40
2022-08-09T18:41:52.945Z,50.40
2022-08-09T18:44:25.986Z,50.40
2022-08-09T18:47:07.746Z,50.40
2022-08-09T18:49:43.020Z,50.40
2022-08-09T18:52:14.526Z,50.40
2022-08-09T18:54:52.159Z,50.40
2022-08-09T18:57:24.041Z,50.50
2022-08-09T19:00:19.085Z,50.50
2022-08-09T19:02:54.057Z,50.50
2022-08-09T19:05:58.675Z,50.40
2022-08-09T19:08:18.614Z,50.50
2022-08-09T19:10:50.746Z,50.50
2022-08-09T19:13:50.011Z,50.40
2022-08-09T19:16:18.249Z,50.50
2022-08-09T19:18:51.302Z,50.50
2022-08-09T19:21:52.193Z,50.50
2022-08-09T19:24:33.162Z,50.60
2022-08-09T19:27:02.139Z,50.50
2022-08-09T19:29:38.351Z,50.60
2022-08-09T19:32:29.423Z,50.60
2022-08-09T19:35:01.483Z,50.60
2022-08-09T19:37:33.250Z,50.50
2022-08-09T19:40:23.125Z,50.70
2022-08-09T19:42:53.538Z,50.60
2022-08-09T19:45:23.592Z,50.60
2022-08-09T19:47:53.665Z,50.60
2022-08-09T19:50:51.157Z,50.70
2022-08-09T19:53:14.379Z,50.70
2022-08-09T19:56:03.015Z,50.70
2022-08-09T19:58:34.662Z,50.70
2022-08-09T20:01:04.916Z,50.70
2022-08-09T20:04:17.182Z,50.70
2022-08-09T20:06:29.903Z,50.70
2022-08-09T20:09:01.625Z,50.70
2022-08-09T20:11:33.873Z,50.70
2022-08-09T20:14:15.345Z,50.70
2022-08-09T20:16:54.217Z,50.70
2022-08-09T20:19:47.566Z,50.70
2022-08-09T20:22:15.634Z,50.70
2022-08-09T20:24:53.882Z,50.70
2022-08-09T20:27:24.801Z,50.80
2022-08-09T20:30:02.656Z,50.70
2022-08-09T20:32:34.101Z,50.70
2022-08-09T20:35:05.597Z,50.70
2022-08-09T20:38:18.821Z,50.80
2022-08-09T20:40:28.192Z,50.80
2022-08-09T20:43:18.835Z,50.80
2022-08-09T20:46:01.508Z,50.80
2022-08-09T20:48:40.158Z,50.80
2022-08-09T20:51:16.663Z,50.80
2022-08-09T20:53:49.852Z,50.80
2022-08-09T20:56:21.953Z,50.90
2022-08-09T20:58:59.222Z,50.80
2022-08-09T21:01:35.174Z,50.90
2022-08-09T21:05:52.141Z,50.80
2022-08-09T21:07:13.631Z,50.80
2022-08-09T21:09:56.290Z,50.80
2022-08-09T21:15:27.465Z,50.80
2022-08-09T21:18:22.877Z,50.80
2022-08-09T21:20:55.949Z,50.90
2022-08-09T21:23:47.532Z,50.90
2022-08-09T21:26:17.388Z,50.90
2022-08-09T21:28:55.337Z,50.90
2022-08-09T21:31:49.438Z,50.90
2022-08-09T21:34:28.493Z,51.00
2022-08-09T21:36:59.112Z,51.10
2022-08-09T21:39:42.445Z,51.00
2022-08-09T21:42:12.919Z,51.00
2022-08-09T21:44:43.690Z,51.00
2022-08-09T21:47:18.409Z,51.00
2022-08-09T21:49:50.953Z,51.00
2022-08-09T21:52:21.969Z,51.00
2022-08-09T21:55:03.918Z,51.10
2022-08-09T21:57:38.153Z,51.00
2022-08-09T22:00:37.551Z,51.00
2022-08-09T22:03:19.370Z,51.00
2022-08-09T22:05:58.486Z,50.90
2022-08-09T22:08:28.507Z,51.00
2022-08-09T22:11:50.465Z,51.00
2022-08-09T22:13:48.943Z,51.00
2022-08-09T22:16:21.220Z,51.00
2022-08-09T22:18:55.127Z,51.10
2022-08-09T22:21:44.765Z,51.00
2022-08-09T22:24:24.208Z,51.00
2022-08-09T22:26:56.028Z,51.00
2022-08-09T22:29:38.440Z,51.10
2022-08-09T22:32:30.047Z,51.00
2022-08-09T22:35:05.929Z,51.00
2022-08-09T22:37:40.239Z,51.00
2022-08-09T22:40:18.238Z,51.00
2022-08-09T22:42:50.651Z,51.00
2022-08-09T22:48:12.887Z,51.10
2022-08-09T22:48:35.088Z,51.00
2022-08-09T22:51:01.624Z,51.00
2022-08-09T22:53:58.066Z,51.00
2022-08-09T22:56:33.732Z,51.00
2022-08-09T22:59:06.110Z,51.00
2022-08-09T23:01:55.287Z,50.90
2022-08-09T23:04:25.720Z,51.00
2022-08-09T23:07:16.329Z,50.90
2022-08-09T23:09:47.212Z,50.90
2022-08-09T23:12:17.558Z,50.90
2022-08-09T23:14:48.063Z,50.90
2022-08-09T23:17:25.958Z,50.90
2022-08-09T23:20:06.276Z,50.90
2022-08-09T23:22:38.386Z,50.90
2022-08-09T23:25:09.101Z,50.80
2022-08-09T23:27:57.493Z,50.80
2022-08-09T23:30:29.944Z,50.80
2022-08-09T23:33:00.736Z,50.70
2022-08-09T23:35:31.095Z,50.70
2022-08-09T23:38:22.030Z,50.70
2022-08-09T23:40:52.531Z,50.70
2022-08-09T23:43:22.962Z,50.60
2022-08-09T23:45:53.728Z,50.70
2022-08-09T23:48:24.252Z,50.60
2022-08-09T23:50:54.927Z,50.60
2022-08-09T23:53:27.677Z,50.60
2022-08-09T23:56:07.285Z,50.50
2022-08-09T23:58:37.337Z,50.50
